Time;durP1;ratioP1;P1;durP2;ratioP2;P2;SDS_P1;SDS_P2;PMS_P1;PMS_P2;Temp;Humidity;BMP_temperature;BMP_pressure;BME280_temperature;BME280_humidity;BME280_pressure;Samples;Min_cycle;Max_cycle;Signal;HPM_P1;HPM_P2
2022/12/28 00:01:21;;;;;;;0.35;0.35;;;12.10;48.70;;;;;;5050661;28;20040;-72
2022/12/28 00:03:46;;;;;;;0.20;0.20;;;12.00;1.00;;;;;;5050876;28;20025;-75
2022/12/28 00:06:13;;;;;;;13.68;5.75;;;12.00;99.90;;;;;;5050694;28;20025;-76
2022/12/28 00:08:39;;;;;;;0.20;0.20;;;12.00;1.00;;;;;;5050804;28;20025;-75
2022/12/28 00:11:09;;;;;;;0.20;0.20;;;12.00;99.90;;;;;;5050582;28;20075;-75
2022/12/28 00:13:35;;;;;;;0.20;0.20;;;12.00;99.90;;;;;;5050504;28;20036;-76
2022/12/28 00:16:19;;;;;;;0.75;0.75;;;12.00;99.90;;;;;;5050414;28;20041;-75
2022/12/28 00:18:45;;;;;;;2.85;2.13;;;12.00;1.00;;;;;;5050368;28;20021;-76
2022/12/28 00:21:11;;;;;;;0.10;0.10;;;12.00;1.00;;;;;;5050512;28;20409;-75
2022/12/28 00:23:36;;;;;;;0.20;0.20;;;12.00;99.90;;;;;;5049389;28;20367;-75
2022/12/28 00:26:08;;;;;;;0.20;0.20;;;12.10;99.90;;;;;;5050685;28;20025;-75
2022/12/28 00:28:34;;;;;;;0.20;0.20;;;12.10;99.90;;;;;;5050747;28;20108;-75
2022/12/28 00:30:59;;;;;;;0.20;0.20;;;12.10;99.90;;;;;;5053491;28;20021;-75
2022/12/28 00:33:25;;;;;;;0.30;0.30;;;12.10;99.90;;;;;;5053702;28;20148;-77
2022/12/28 00:35:55;;;;;;;0.25;0.25;;;12.20;86.60;;;;;;5052671;28;20159;-75
2022/12/28 00:38:21;;;;;;;1.00;1.00;;;12.10;13.20;;;;;;5054127;28;20036;-74
2022/12/28 00:40:46;;;;;;;0.20;0.20;;;12.10;83.40;;;;;;5053752;28;20041;-74
2022/12/28 00:43:12;;;;;;;0.20;0.20;;;12.10;99.90;;;;;;5054166;28;20068;-74
2022/12/28 00:45:38;;;;;;;1.40;1.33;;;12.20;34.80;;;;;;5054661;28;20033;-75
2022/12/28 00:48:04;;;;;;;0.20;0.20;;;12.20;99.90;;;;;;5053639;28;20032;-74
2022/12/28 00:50:30;;;;;;;0.20;0.20;;;12.20;95.90;;;;;;5053807;28;20039;-75
2022/12/28 00:52:56;;;;;;;0.20;0.20;;;12.20;1.00;;;;;;5052329;28;20096;-75
2022/12/28 00:55:21;;;;;;;0.15;0.15;;;12.20;96.40;;;;;;5035244;28;20072;-76
2022/12/28 00:57:47;;;;;;;0.20;0.20;;;12.20;99.90;;;;;;5053395;28;20039;-76
2022/12/28 01:00:13;;;;;;;0.10;0.10;;;12.20;99.90;;;;;;5052011;28;20497;-76
2022/12/28 01:02:39;;;;;;;0.10;0.10;;;12.20;8.00;;;;;;5053324;28;20021;-76
2022/12/28 01:05:05;;;;;;;0.20;0.20;;;12.20;99.90;;;;;;5053290;28;20079;-77
2022/12/28 01:07:31;;;;;;;0.20;0.20;;;12.20;1.00;;;;;;5053170;28;20162;-76
2022/12/28 01:09:57;;;;;;;0.40;0.40;;;12.20;99.90;;;;;;5053304;28;20096;-75
2022/12/28 01:12:23;;;;;;;0.20;0.20;;;12.20;99.90;;;;;;5053125;28;20029;-75
2022/12/28 01:14:48;;;;;;;0.20;0.20;;;12.20;99.90;;;;;;5052851;28;20091;-76
2022/12/28 01:17:14;;;;;;;0.20;0.20;;;12.10;1.00;;;;;;5053128;28;20025;-75
2022/12/28 01:19:40;;;;;;;4.22;1.15;;;12.20;1.00;;;;;;5052948;28;20025;-74
2022/12/28 01:22:05;;;;;;;0.20;0.20;;;12.20;1.00;;;;;;5053277;28;20187;-76
2022/12/28 01:24:31;;;;;;;0.20;0.20;;;12.20;1.00;;;;;;5052826;28;20485;-76
2022/12/28 01:26:56;;;;;;;0.20;0.20;;;12.20;1.00;;;;;;5053035;28;20357;-76
2022/12/28 01:29:22;;;;;;;1.75;1.02;;;12.20;1.00;;;;;;5052905;28;20098;-75
2022/12/28 01:31:48;;;;;;;0.85;0.85;;;12.30;1.00;;;;;;5052701;28;20041;-78
2022/12/28 01:34:13;;;;;;;1.88;1.77;;;12.30;1.00;;;;;;5052689;28;20059;-75
2022/12/28 01:36:39;;;;;;;1.75;1.23;;;12.30;99.90;;;;;;5052783;28;20021;-75
2022/12/28 01:39:05;;;;;;;0.17;0.17;;;12.30;99.90;;;;;;5052812;28;20029;-76
2022/12/28 01:41:35;;;;;;;4.95;2.17;;;12.30;99.90;;;;;;5051603;28;20060;-75
2022/12/28 01:44:00;;;;;;;0.20;0.20;;;12.30;1.00;;;;;;5052340;28;20110;-75
2022/12/28 01:46:49;;;;;;;0.22;0.22;;;12.30;1.00;;;;;;5052536;28;20508;-76
2022/12/28 01:49:39;;;;;;;0.20;0.20;;;12.40;8.10;;;;;;5052358;28;20021;-75
2022/12/28 01:52:14;;;;;;;0.20;0.20;;;12.30;99.90;;;;;;5052682;28;20029;-76
2022/12/28 01:54:51;;;;;;;0.20;0.20;;;12.30;99.70;;;;;;5052264;28;20033;-76
2022/12/28 01:57:18;;;;;;;0.20;0.20;;;12.30;99.90;;;;;;5053184;28;20032;-76
2022/12/28 01:59:51;;;;;;;0.13;0.13;;;12.30;99.90;;;;;;5055324;28;20021;-77
2022/12/28 02:02:16;;;;;;;1.70;1.08;;;12.30;99.90;;;;;;5054221;28;20024;-76
2022/12/28 02:04:44;;;;;;;0.28;0.28;;;12.30;99.90;;;;;;5052727;28;20527;-76
2022/12/28 02:07:11;;;;;;;0.10;0.10;;;12.40;44.80;;;;;;5052249;28;20098;-77
2022/12/28 02:09:42;;;;;;;0.15;0.15;;;12.40;1.20;;;;;;5051770;28;20432;-75
2022/12/28 02:12:12;;;;;;;0.20;0.20;;;12.30;1.00;;;;;;5052240;28;20283;-75
2022/12/28 02:14:39;;;;;;;0.20;0.20;;;12.30;1.00;;;;;;5051767;28;20049;-75
2022/12/28 02:17:08;;;;;;;0.20;0.20;;;12.30;1.00;;;;;;5052469;28;20091;-75
2022/12/28 02:19:44;;;;;;;0.20;0.20;;;12.40;1.00;;;;;;5051899;28;20441;-76
2022/12/28 02:22:32;;;;;;;0.17;0.17;;;12.30;1.00;;;;;;5052315;28;20462;-77
2022/12/28 02:25:18;;;;;;;0.20;0.20;;;12.40;37.50;;;;;;5051826;28;20021;-78
2022/12/28 02:27:50;;;;;;;0.25;0.25;;;12.40;95.50;;;;;;5051752;28;20025;-79
2022/12/28 02:30:16;;;;;;;0.20;0.20;;;12.30;99.90;;;;;;5052304;28;20514;-77
2022/12/28 02:32:58;;;;;;;11.90;1.98;;;12.30;99.90;;;;;;5052008;28;20036;-78
2022/12/28 02:35:55;;;;;;;22.48;2.78;;;12.40;99.90;;;;;;5051754;28;20102;-78
2022/12/28 02:38:32;;;;;;;10.93;2.17;;;12.30;99.90;;;;;;5051751;28;20039;-78
2022/12/28 02:41:08;;;;;;;14.15;2.85;;;12.40;99.90;;;;;;5051446;28;20593;-78
2022/12/28 02:43:35;;;;;;;21.83;3.33;;;12.30;99.90;;;;;;5051629;28;20025;-77
2022/12/28 02:51:52;;;;;;;30.15;3.08;;;12.30;99.90;;;;;;5052026;28;20074;-77
2022/12/28 02:57:30;;;;;;;20.73;2.80;;;12.40;99.90;;;;;;5051195;28;20036;-77
2022/12/28 03:00:01;;;;;;;37.70;4.30;;;12.30;99.90;;;;;;5051461;28;20552;-80
2022/12/28 03:02:27;;;;;;;20.37;3.97;;;12.40;99.90;;;;;;5051316;28;20029;-79
2022/12/28 03:08:13;;;;;;;28.75;3.58;;;12.40;99.90;;;;;;5051325;28;20135;-79
2022/12/28 03:08:21;;;;;;;18.15;2.60;;;12.40;99.90;;;;;;5050966;28;20032;-77
2022/12/28 03:10:49;;;;;;;28.35;3.35;;;12.40;99.90;;;;;;5050993;28;20017;-77
2022/12/28 03:13:41;;;;;;;28.25;3.03;;;12.40;99.90;;;;;;5051086;28;20020;-77
2022/12/28 03:16:28;;;;;;;11.55;2.97;;;12.40;99.90;;;;;;5050853;28;20032;-75
2022/12/28 03:32:58;;;;;;;29.88;3.53;;;12.40;99.90;;;;;;5051290;28;20039;-77
2022/12/28 03:35:36;;;;;;;27.40;3.50;;;12.40;99.90;;;;;;5050876;28;20397;-79
2022/12/28 03:38:03;;;;;;;19.70;2.97;;;12.40;99.90;;;;;;5051200;28;20104;-80
2022/12/28 03:40:48;;;;;;;9.48;2.20;;;12.40;99.90;;;;;;5049957;28;20506;-78
2022/12/28 03:46:44;;;;;;;12.18;2.13;;;12.40;99.90;;;;;;5050993;28;20158;-78
2022/12/28 03:49:10;;;;;;;27.13;3.53;;;12.50;99.90;;;;;;5052308;28;20025;-78
2022/12/28 03:51:37;;;;;;;14.32;2.28;;;12.40;99.90;;;;;;5052678;28;20431;-77
2022/12/28 03:54:02;;;;;;;16.58;2.38;;;12.40;99.90;;;;;;5053274;28;20033;-78
2022/12/28 03:56:28;;;;;;;8.70;2.45;;;12.40;99.90;;;;;;5051722;28;20056;-78
2022/12/28 03:58:55;;;;;;;17.30;2.97;;;12.40;99.90;;;;;;5055599;28;20052;-78
2022/12/28 04:01:21;;;;;;;13.52;2.42;;;12.40;99.90;;;;;;5055056;28;20029;-78
2022/12/28 04:03:47;;;;;;;21.80;3.30;;;12.50;99.90;;;;;;5055062;28;20021;-77
2022/12/28 04:06:15;;;;;;;18.30;3.67;;;12.40;99.90;;;;;;5055259;28;20029;-79
2022/12/28 04:08:42;;;;;;;23.30;3.00;;;12.40;99.90;;;;;;5055236;28;20539;-76
2022/12/28 04:11:08;;;;;;;21.20;2.90;;;12.40;99.90;;;;;;5054768;28;20033;-76
2022/12/28 04:13:34;;;;;;;14.30;3.28;;;12.40;99.90;;;;;;5042719;28;20030;-76
2022/12/28 04:16:05;;;;;;;23.35;4.45;;;12.40;99.90;;;;;;5044828;28;20033;-76
2022/12/28 04:18:32;;;;;;;17.27;2.65;;;12.50;99.90;;;;;;5036416;28;20017;-79
2022/12/28 04:20:58;;;;;;;15.55;2.78;;;12.40;99.90;;;;;;5034400;28;20593;-78
2022/12/28 04:23:24;;;;;;;20.67;2.50;;;12.40;99.90;;;;;;5034520;28;20018;-77
2022/12/28 04:26:16;;;;;;;17.63;3.28;;;12.40;99.90;;;;;;5034319;28;20501;-78
2022/12/28 04:28:43;;;;;;;23.90;2.95;;;12.40;99.90;;;;;;5034687;28;20037;-79
2022/12/28 04:31:11;;;;;;;18.60;2.92;;;12.40;99.90;;;;;;5044684;28;20025;-79
2022/12/28 04:33:38;;;;;;;15.25;3.13;;;12.40;99.90;;;;;;5053116;28;20086;-76
2022/12/28 04:36:15;;;;;;;15.80;2.15;;;12.40;99.90;;;;;;5054049;28;20032;-76
2022/12/28 04:38:40;;;;;;;17.85;3.47;;;12.40;99.90;;;;;;5053821;28;20051;-76
2022/12/28 04:41:07;;;;;;;15.63;4.35;;;12.40;99.90;;;;;;5053728;28;20076;-77
2022/12/28 04:43:34;;;;;;;16.17;2.13;;;12.40;99.90;;;;;;5054169;28;20018;-77
2022/12/28 04:46:06;;;;;;;23.10;3.58;;;12.40;99.90;;;;;;5053953;28;20056;-77
2022/12/28 04:48:33;;;;;;;18.42;2.58;;;12.30;99.90;;;;;;5054139;28;20033;-76
2022/12/28 04:51:25;;;;;;;15.88;2.30;;;12.40;99.90;;;;;;5053231;28;20036;-77
2022/12/28 04:53:52;;;;;;;41.45;3.63;;;12.40;99.90;;;;;;5060631;28;20069;-77
2022/12/28 04:56:20;;;;;;;22.80;2.42;;;12.40;99.90;;;;;;5059754;28;20033;-79
2022/12/28 04:58:46;;;;;;;14.38;2.20;;;12.40;99.90;;;;;;5059894;28;20060;-79
2022/12/28 05:01:15;;;;;;;27.02;2.60;;;12.40;99.90;;;;;;5063128;28;20016;-79
2022/12/28 05:03:43;;;;;;;18.33;1.92;;;12.40;99.90;;;;;;5062859;28;20108;-78
2022/12/28 05:06:14;;;;;;;20.67;2.03;;;12.40;99.90;;;;;;5066378;28;20028;-77
2022/12/28 05:08:40;;;;;;;29.92;3.08;;;12.40;99.90;;;;;;5045432;28;20021;-77
2022/12/28 05:11:09;;;;;;;12.30;1.98;;;12.40;99.90;;;;;;5037444;28;20492;-76
2022/12/28 05:13:35;;;;;;;28.02;3.78;;;12.50;99.90;;;;;;5038100;28;20064;-76
2022/12/28 05:16:02;;;;;;;29.20;2.67;;;12.40;99.90;;;;;;5040757;28;20076;-76
2022/12/28 05:18:28;;;;;;;30.27;2.90;;;12.50;42.90;;;;;;5038197;28;20565;-77
2022/12/28 05:21:15;;;;;;;22.80;2.38;;;12.50;99.90;;;;;;5033644;28;20104;-76
2022/12/28 05:23:41;;;;;;;61.00;5.18;;;12.50;99.90;;;;;;5033155;28;20035;-75
2022/12/28 05:26:10;;;;;;;26.48;4.13;;;12.50;43.80;;;;;;5033473;28;20026;-77
2022/12/28 05:28:36;;;;;;;20.02;3.00;;;12.50;99.90;;;;;;5033204;28;20025;-77
2022/12/28 05:31:04;;;;;;;17.10;2.13;;;12.50;99.90;;;;;;5044538;28;20021;-76
2022/12/28 05:33:31;;;;;;;24.48;4.70;;;12.50;46.10;;;;;;5052992;28;20035;-77
2022/12/28 05:36:11;;;;;;;20.92;2.95;;;12.50;99.90;;;;;;5052231;28;20305;-75
2022/12/28 05:38:38;;;;;;;16.13;2.65;;;12.60;1.00;;;;;;5052699;28;20017;-74
2022/12/28 05:41:22;;;;;;;16.55;2.42;;;12.60;99.90;;;;;;5052575;28;20102;-76
2022/12/28 05:43:48;;;;;;;21.90;2.42;;;12.60;99.90;;;;;;5052539;28;20111;-74
2022/12/28 05:46:18;;;;;;;30.02;3.13;;;12.60;99.90;;;;;;5034352;28;20061;-74
2022/12/28 05:48:44;;;;;;;17.63;3.20;;;12.60;22.20;;;;;;5032554;28;20025;-75
2022/12/28 05:51:13;;;;;;;22.77;2.88;;;12.60;99.90;;;;;;5032045;28;20046;-76
2022/12/28 05:53:39;;;;;;;29.35;2.45;;;12.60;99.90;;;;;;5032258;28;20017;-77
2022/12/28 05:56:07;;;;;;;33.65;3.42;;;12.60;99.90;;;;;;5032496;28;20075;-77
2022/12/28 05:58:33;;;;;;;22.52;2.47;;;12.60;99.90;;;;;;5031071;28;20026;-77
2022/12/28 06:01:15;;;;;;;22.83;3.50;;;12.60;99.90;;;;;;5032541;28;20022;-77
2022/12/28 06:03:41;;;;;;;;;;;12.60;99.90;;;;;;5033217;28;20033;-79
2022/12/28 06:06:18;;;;;;;30.77;3.22;;;12.60;99.90;;;;;;5035114;28;19928;-75
2022/12/28 06:08:45;;;;;;;19.70;3.05;;;12.50;99.90;;;;;;5036042;28;20068;-78
2022/12/28 06:11:13;;;;;;;22.92;3.90;;;12.50;99.90;;;;;;5034180;28;20382;-80
2022/12/28 06:13:39;;;;;;;24.48;2.60;;;12.50;99.90;;;;;;5032341;28;20375;-80
2022/12/28 06:16:16;;;;;;;34.60;5.00;;;12.40;99.90;;;;;;5032509;28;20034;-80
2022/12/28 06:18:43;;;;;;;18.05;3.28;;;12.40;99.90;;;;;;5032529;28;20087;-80
2022/12/28 06:21:16;;;;;;;27.25;3.70;;;12.40;99.90;;;;;;5032656;28;20029;-80
2022/12/28 06:23:43;;;;;;;21.58;3.22;;;12.30;99.90;;;;;;5032582;28;20055;-80
2022/12/28 06:26:11;;;;;;;26.58;3.97;;;12.40;99.90;;;;;;5032724;28;20029;-80
2022/12/28 06:28:37;;;;;;;38.13;4.35;;;12.40;99.90;;;;;;5032512;28;20043;-79
2022/12/28 06:31:10;;;;;;;23.63;3.10;;;12.40;99.90;;;;;;5032438;28;20029;-80
2022/12/28 06:33:35;;;;;;;37.28;6.13;;;12.40;99.90;;;;;;5032523;28;20021;-80
2022/12/28 06:36:02;;;;;;;18.13;2.78;;;12.40;99.90;;;;;;5032996;28;20033;-81
2022/12/28 06:38:31;;;;;;;19.52;3.58;;;12.30;99.90;;;;;;5032624;28;20044;-80
2022/12/28 06:41:04;;;;;;;18.15;2.55;;;12.30;99.90;;;;;;5033326;28;20079;-80
2022/12/28 06:43:32;;;;;;;0.20;0.20;;;12.30;99.90;;;;;;5033056;28;20486;-81
2022/12/28 06:45:57;;;;;;;6.78;4.60;;;12.30;99.90;;;;;;5031801;28;20037;-80
2022/12/28 06:48:23;;;;;;;0.20;0.20;;;12.30;99.90;;;;;;5031639;28;20017;-78
2022/12/28 06:50:58;;;;;;;0.20;0.20;;;12.30;99.90;;;;;;5031838;28;20056;-79
2022/12/28 06:53:26;;;;;;;0.30;0.30;;;12.30;99.90;;;;;;5032365;28;20057;-79
2022/12/28 06:55:57;;;;;;;0.15;0.15;;;12.30;99.90;;;;;;5032751;28;20111;-79
2022/12/28 06:58:24;;;;;;;0.20;0.20;;;12.30;99.90;;;;;;5050051;28;20048;-78
2022/12/28 07:00:50;;;;;;;0.20;0.20;;;12.30;99.90;;;;;;5049986;28;20029;-77
2022/12/28 07:03:16;;;;;;;0.73;0.73;;;12.30;99.90;;;;;;5051289;28;20024;-77
2022/12/28 07:05:42;;;;;;;0.30;0.30;;;12.70;99.90;;;;;;5052126;28;20032;-77
2022/12/28 07:08:08;;;;;;;0.30;0.30;;;12.70;99.90;;;;;;5071717;28;20032;-80
2022/12/28 07:10:34;;;;;;;0.17;0.17;;;12.70;99.90;;;;;;5071301;28;20415;-77
2022/12/28 07:13:00;;;;;;;0.20;0.20;;;12.70;99.90;;;;;;5071715;28;20063;-77
2022/12/28 07:15:25;;;;;;;0.10;0.10;;;13.00;99.90;;;;;;5070979;28;20101;-78
2022/12/28 07:17:51;;;;;;;0.17;0.17;;;12.90;99.90;;;;;;5073035;28;20024;-77
2022/12/28 07:20:17;;;;;;;0.90;0.90;;;13.50;99.90;;;;;;5071770;28;20115;-75
2022/12/28 07:22:42;;;;;;;0.57;0.57;;;13.70;99.90;;;;;;5072483;28;20393;-76
2022/12/28 07:25:08;;;;;;;0.20;0.20;;;14.00;99.90;;;;;;5072827;28;20029;-79
2022/12/28 07:27:35;;;;;;;0.10;0.10;;;14.10;99.90;;;;;;5055547;28;20484;-79
2022/12/28 07:30:00;;;;;;;0.10;0.10;;;14.10;99.90;;;;;;5050273;28;20025;-79
2022/12/28 07:32:26;;;;;;;0.28;0.28;;;14.10;99.90;;;;;;5051164;28;20436;-77
2022/12/28 07:34:52;;;;;;;0.20;0.20;;;14.10;99.90;;;;;;5051294;28;20072;-77
2022/12/28 07:37:18;;;;;;;0.20;0.20;;;14.30;99.90;;;;;;5051218;28;20017;-77
2022/12/28 07:39:43;;;;;;;2.08;1.95;;;14.40;99.90;;;;;;5052057;28;20029;-76
2022/12/28 07:42:10;;;;;;;0.10;0.10;;;14.50;99.90;;;;;;5055393;28;20031;-77
2022/12/28 07:44:37;;;;;;;0.10;0.10;;;14.20;99.90;;;;;;5055289;28;20547;-75
2022/12/28 07:47:03;;;;;;;0.20;0.20;;;14.10;99.90;;;;;;5056025;28;20491;-78
2022/12/28 07:49:29;;;;;;;0.15;0.15;;;14.20;99.90;;;;;;5064088;28;20077;-79
2022/12/28 07:51:54;;;;;;;0.17;0.17;;;14.20;99.90;;;;;;5062930;28;20105;-77
2022/12/28 07:54:20;;;;;;;0.20;0.20;;;14.20;99.90;;;;;;5061702;28;20064;-75
2022/12/28 07:56:46;;;;;;;0.20;0.20;;;14.20;99.90;;;;;;5061646;28;20024;-76
2022/12/28 07:59:14;;;;;;;0.20;0.20;;;14.20;99.90;;;;;;5059331;28;20032;-75
2022/12/28 08:01:40;;;;;;;4.68;1.85;;;14.30;99.90;;;;;;5055732;28;20306;-75
2022/12/28 08:04:08;;;;;;;0.20;0.20;;;14.50;99.90;;;;;;5054366;28;20199;-75
2022/12/28 08:06:38;;;;;;;0.20;0.20;;;14.60;99.90;;;;;;5054358;28;20407;-75
2022/12/28 08:09:05;;;;;;;0.20;0.20;;;14.70;99.90;;;;;;5054293;28;20021;-75
2022/12/28 08:11:33;;;;;;;0.20;0.20;;;14.70;99.90;;;;;;5053173;28;20048;-74
2022/12/28 08:14:01;;;;;;;0.20;0.20;;;14.60;99.90;;;;;;5057310;28;20029;-75
2022/12/28 08:16:32;;;;;;;0.10;0.10;;;14.70;99.90;;;;;;5058288;28;20053;-76
2022/12/28 08:18:58;;;;;;;0.40;0.40;;;14.80;99.90;;;;;;5057717;28;20025;-78
2022/12/28 08:21:32;;;;;;;0.20;0.20;;;14.80;99.90;;;;;;5050320;28;20073;-77
2022/12/28 08:23:58;;;;;;;0.10;0.10;;;14.70;99.90;;;;;;5039813;28;20033;-76
2022/12/28 08:26:27;;;;;;;0.20;0.20;;;14.80;99.90;;;;;;5034716;28;20025;-78
2022/12/28 08:28:56;;;;;;;0.10;0.10;;;14.80;99.90;;;;;;5035347;28;20025;-77
2022/12/28 08:31:30;;;;;;;1.25;1.25;;;14.70;99.90;;;;;;5037035;28;20083;-76
2022/12/28 08:33:58;;;;;;;9.65;2.05;;;14.90;99.90;;;;;;5043324;28;20079;-76
2022/12/28 08:36:24;;;;;;;0.40;0.40;;;15.00;99.90;;;;;;5045531;28;20033;-77
2022/12/28 08:38:51;;;;;;;0.38;0.38;;;15.00;99.90;;;;;;5034933;28;20029;-77
2022/12/28 08:41:20;;;;;;;0.20;0.20;;;14.90;99.90;;;;;;5035624;28;20441;-78
2022/12/28 08:43:48;;;;;;;0.20;0.20;;;15.20;99.90;;;;;;5034388;28;20022;-78
2022/12/28 08:46:19;;;;;;;0.20;0.20;;;15.30;99.90;;;;;;5050795;28;20048;-78
2022/12/28 08:48:46;;;;;;;0.30;0.30;;;14.80;99.90;;;;;;5053725;28;20112;-77
2022/12/28 08:51:32;;;;;;;0.30;0.30;;;14.80;99.90;;;;;;5050011;28;20037;-78
2022/12/28 08:53:59;;;;;;;0.50;0.50;;;14.70;99.90;;;;;;5039742;28;20132;-79
2022/12/28 08:56:33;;;;;;;0.20;0.20;;;14.70;99.90;;;;;;5052035;28;20029;-77
2022/12/28 08:58:59;;;;;;;0.20;0.20;;;14.70;99.90;;;;;;5038702;28;20075;-77
2022/12/28 09:01:26;;;;;;;0.20;0.20;;;14.60;99.90;;;;;;5038229;28;20030;-79
2022/12/28 09:03:54;;;;;;;0.35;0.35;;;14.60;99.90;;;;;;5036059;28;20567;-76
2022/12/28 09:06:23;;;;;;;0.13;0.13;;;14.70;99.90;;;;;;5042612;28;20033;-80
2022/12/28 09:08:50;;;;;;;2.47;2.38;;;14.50;99.90;;;;;;5046940;28;20389;-77
2022/12/28 09:11:17;;;;;;;0.20;0.20;;;14.50;99.90;;;;;;5046732;28;20048;-76
2022/12/28 09:13:43;;;;;;;0.20;0.20;;;14.50;99.90;;;;;;5052671;28;20025;-77
2022/12/28 09:16:14;;;;;;;31.05;1.65;;;14.50;99.90;;;;;;5039667;28;20048;-78
2022/12/28 09:18:41;;;;;;;9.82;2.72;;;14.40;99.90;;;;;;5052247;28;20299;-78
2022/12/28 09:21:13;;;;;;;0.20;0.20;;;14.50;99.90;;;;;;5053465;28;20040;-79
2022/12/28 09:23:39;;;;;;;0.30;0.30;;;14.70;99.90;;;;;;5043373;28;20021;-76
2022/12/28 09:26:09;;;;;;;0.20;0.20;;;14.70;99.90;;;;;;5033838;28;20438;-77
2022/12/28 09:28:35;;;;;;;1.65;1.48;;;14.60;99.90;;;;;;5044215;28;20029;-76
2022/12/28 09:31:06;;;;;;;0.20;0.20;;;14.50;99.90;;;;;;5053092;28;20155;-76
2022/12/28 09:36:18;;;;;;;0.20;0.20;;;14.20;99.90;;;;;;5051406;28;20513;-78
2022/12/28 09:38:48;;;;;;;0.32;0.32;;;14.10;99.90;;;;;;5036458;28;20025;-78
2022/12/28 09:41:31;;;;;;;0.17;0.17;;;14.20;99.90;;;;;;5043747;28;20054;-76
2022/12/28 09:44:09;;;;;;;0.10;0.10;;;14.30;99.90;;;;;;5032304;28;20025;-78
2022/12/28 09:46:37;;;;;;;0.82;0.77;;;14.30;99.90;;;;;;5032681;28;20377;-74
2022/12/28 09:49:10;;;;;;;0.20;0.20;;;14.30;99.90;;;;;;5035809;28;20478;-77
2022/12/28 09:52:15;;;;;;;0.20;0.20;;;14.40;99.90;;;;;;5052193;28;20071;-79
2022/12/28 09:54:41;;;;;;;2.42;2.33;;;14.30;99.90;;;;;;5029487;28;20076;-75
2022/12/28 09:57:15;;;;;;;0.40;0.40;;;14.40;99.90;;;;;;5031927;28;20034;-76
2022/12/28 09:59:42;;;;;;;0.20;0.20;;;14.40;99.90;;;;;;5032924;28;20087;-76
2022/12/28 10:02:25;;;;;;;0.20;0.20;;;14.40;99.90;;;;;;5031453;28;20113;-75
2022/12/28 10:04:51;;;;;;;0.95;0.95;;;14.40;99.90;;;;;;5035399;28;20030;-74
2022/12/28 10:07:17;;;;;;;0.20;0.20;;;14.40;99.90;;;;;;5032305;28;20034;-73
2022/12/28 10:09:44;;;;;;;0.20;0.20;;;14.40;99.90;;;;;;5032075;28;20417;-74
2022/12/28 10:12:17;;;;;;;0.20;0.20;;;14.30;99.90;;;;;;5031764;28;20033;-74
2022/12/28 10:14:47;;;;;;;0.20;0.20;;;14.30;99.90;;;;;;5032226;28;20104;-75
2022/12/28 10:17:14;;;;;;;0.30;0.30;;;14.30;99.90;;;;;;5037320;28;20022;-75
2022/12/28 10:19:40;;;;;;;0.20;0.20;;;14.20;99.90;;;;;;5033842;28;20038;-73
2022/12/28 10:22:32;;;;;;;0.20;0.20;;;14.30;99.90;;;;;;5034350;28;20385;-74
2022/12/28 10:24:58;;;;;;;;;;;14.20;99.90;;;;;;5032630;28;20062;-78
2022/12/28 10:27:29;;;;;;;0.65;0.65;;;14.30;99.90;;;;;;5032167;28;19908;-78
2022/12/28 10:29:58;;;;;;;0.20;0.20;;;14.30;99.90;;;;;;5042881;28;20027;-78
2022/12/28 10:32:23;;;;;;;0.10;0.10;;;14.20;99.90;;;;;;5043002;28;20048;-77
2022/12/28 10:35:20;;;;;;;0.88;0.85;;;14.30;99.90;;;;;;5041689;28;20091;-78
2022/12/28 10:37:45;;;;;;;0.20;0.20;;;14.30;99.90;;;;;;5054933;28;20025;-76
2022/12/28 10:40:25;;;;;;;1.20;1.20;;;14.60;99.90;;;;;;5056482;28;20082;-74
2022/12/28 10:42:56;;;;;;;0.20;0.20;;;14.50;99.90;;;;;;5051759;28;20021;-76
2022/12/28 10:45:32;;;;;;;0.15;0.15;;;14.40;99.90;;;;;;5051572;28;20021;-77
2022/12/28 10:47:58;;;;;;;0.20;0.20;;;14.40;99.90;;;;;;5033693;28;20555;-78
2022/12/28 10:50:52;;;;;;;0.73;0.73;;;14.40;99.90;;;;;;5031675;28;20097;-75
2022/12/28 10:53:25;;;;;;;0.30;0.30;;;14.30;99.90;;;;;;5031576;28;20140;-75
2022/12/28 10:56:09;;;;;;;0.30;0.30;;;14.20;99.90;;;;;;5030102;28;20052;-75
2022/12/28 10:58:35;;;;;;;0.20;0.20;;;14.20;99.90;;;;;;5033662;28;20124;-74
2022/12/28 11:01:13;;;;;;;0.20;0.20;;;14.30;99.90;;;;;;5033441;28;20104;-75
2022/12/28 11:03:55;;;;;;;0.20;0.20;;;14.20;99.90;;;;;;5031698;28;20056;-76
2022/12/28 11:06:24;;;;;;;0.10;0.10;;;14.20;99.90;;;;;;5030198;28;20112;-74
2022/12/28 11:09:01;;;;;;;0.10;0.10;;;14.20;99.90;;;;;;5042461;28;20029;-74
2022/12/28 11:11:27;;;;;;;0.13;0.13;;;14.20;99.90;;;;;;5045281;28;20029;-75
2022/12/28 11:14:05;;;;;;;0.30;0.30;;;14.20;99.90;;;;;;5036896;28;20557;-75
2022/12/28 11:16:35;;;;;;;0.15;0.15;;;14.30;99.90;;;;;;5048449;28;20086;-73
2022/12/28 11:19:01;;;;;;;0.38;0.38;;;14.40;99.90;;;;;;5037987;28;20103;-74
2022/12/28 11:21:27;;;;;;;0.20;0.20;;;14.40;99.90;;;;;;5031193;28;20105;-74
2022/12/28 11:23:53;;;;;;;0.20;0.20;;;14.30;99.90;;;;;;5030885;28;20108;-74
2022/12/28 11:26:20;;;;;;;0.85;0.82;;;14.30;99.90;;;;;;5031031;28;20447;-74
2022/12/28 11:28:50;;;;;;;0.20;0.20;;;14.50;99.90;;;;;;5031037;28;20094;-75
2022/12/28 11:31:40;;;;;;;0.35;0.35;;;14.40;99.90;;;;;;5031029;28;20104;-75
2022/12/28 11:34:16;;;;;;;0.65;0.65;;;14.80;99.90;;;;;;5030872;28;20052;-75
2022/12/28 11:36:42;;;;;;;0.85;0.85;;;14.90;99.90;;;;;;5031038;28;20088;-75
2022/12/28 11:39:31;;;;;;;0.17;0.17;;;15.00;99.90;;;;;;5030962;28;20026;-74
2022/12/28 11:41:58;;;;;;;0.10;0.10;;;14.80;99.90;;;;;;5032515;28;20069;-73
2022/12/28 11:44:33;;;;;;;0.17;0.17;;;14.70;99.90;;;;;;5029639;28;20029;-74
2022/12/28 11:47:18;;;;;;;0.20;0.20;;;14.80;99.90;;;;;;5030932;28;20110;-73
2022/12/28 11:49:46;;;;;;;0.38;0.38;;;14.60;99.90;;;;;;5030914;28;20055;-74
2022/12/28 11:52:22;;;;;;;0.10;0.10;;;14.70;99.90;;;;;;5030948;28;20030;-73
2022/12/28 11:54:58;;;;;;;1.75;1.63;;;16.70;99.90;;;;;;5029614;28;20033;-74
2022/12/28 11:57:42;;;;;;;1.45;1.45;;;16.70;99.90;;;;;;5030733;28;20052;-74
2022/12/28 12:00:19;;;;;;;0.30;0.30;;;16.80;99.90;;;;;;5030920;28;20035;-74
2022/12/28 12:02:50;;;;;;;0.20;0.20;;;16.90;99.90;;;;;;5030802;28;20024;-74
2022/12/28 12:05:34;;;;;;;0.20;0.20;;;17.00;99.90;;;;;;5031040;28;20025;-74
2022/12/28 12:08:00;;;;;;;1.48;1.48;;;17.00;99.90;;;;;;5030601;28;20018;-74
2022/12/28 12:10:28;;;;;;;0.20;0.20;;;17.00;99.90;;;;;;5030793;28;20351;-74
2022/12/28 12:12:54;;;;;;;0.20;0.20;;;17.00;99.90;;;;;;5030485;28;20037;-75
2022/12/28 12:15:26;;;;;;;0.20;0.20;;;17.10;99.90;;;;;;5029885;28;20029;-75
2022/12/28 12:18:04;;;;;;;0.20;0.20;;;17.40;99.90;;;;;;5030446;28;20021;-76
2022/12/28 12:20:52;;;;;;;3.95;3.70;;;17.40;99.90;;;;;;5035873;28;20034;-77
2022/12/28 12:23:27;;;;;;;3.38;3.10;;;17.60;99.90;;;;;;5031807;28;20100;-76
2022/12/28 12:25:57;;;;;;;0.55;0.55;;;17.80;99.90;;;;;;5032036;28;20077;-77
2022/12/28 12:28:34;;;;;;;0.70;0.68;;;18.00;99.90;;;;;;5035796;28;20029;-77
2022/12/28 12:31:02;;;;;;;0.10;0.10;;;18.10;99.90;;;;;;5035229;28;20033;-76
2022/12/28 12:33:39;;;;;;;0.13;0.13;;;18.10;99.90;;;;;;5033461;28;20025;-76
2022/12/28 12:36:29;;;;;;;0.20;0.20;;;18.10;99.90;;;;;;5034558;28;20045;-76
2022/12/28 12:39:32;;;;;;;0.20;0.20;;;18.10;99.90;;;;;;5034555;28;20022;-77
2022/12/28 12:42:18;;;;;;;0.20;0.20;;;18.20;99.90;;;;;;5047021;28;20036;-72
2022/12/28 12:44:56;;;;;;;0.20;0.20;;;18.30;99.90;;;;;;5033807;28;20121;-74
2022/12/28 12:47:43;;;;;;;9.10;3.13;;;18.40;99.90;;;;;;5034019;28;20029;-74
2022/12/28 12:50:34;;;;;;;0.20;0.20;;;18.60;99.90;;;;;;5051648;28;20025;-74
2022/12/28 12:53:14;;;;;;;1.75;1.42;;;18.70;99.90;;;;;;5044694;28;20082;-73
2022/12/28 12:56:00;;;;;;;0.20;0.20;;;18.90;99.90;;;;;;5032387;28;20203;-73
2022/12/28 12:58:38;;;;;;;0.10;0.10;;;19.30;99.90;;;;;;5033609;28;20080;-72
2022/12/28 13:01:33;;;;;;;0.35;0.35;;;21.20;99.90;;;;;;5033595;28;20112;-72
2022/12/28 13:04:14;;;;;;;0.20;0.20;;;21.20;99.90;;;;;;5032622;28;20038;-73
2022/12/28 13:06:41;;;;;;;0.20;0.20;;;21.20;99.90;;;;;;5032700;28;20049;-71
2022/12/28 13:09:15;;;;;;;0.20;0.20;;;21.30;99.90;;;;;;5034213;28;20030;-73
2022/12/28 13:11:42;;;;;;;0.20;0.20;;;21.30;99.90;;;;;;5032764;28;20029;-74
2022/12/28 13:14:22;;;;;;;0.20;0.20;;;21.10;99.90;;;;;;5034345;28;20429;-74
2022/12/28 13:16:53;;;;;;;0.10;0.10;;;21.10;99.90;;;;;;5033557;28;20569;-73
2022/12/28 13:19:25;;;;;;;1.23;1.13;;;21.20;99.90;;;;;;5037229;28;20033;-77
2022/12/28 13:21:52;;;;;;;0.20;0.20;;;21.10;99.90;;;;;;5044903;28;20043;-73
2022/12/28 13:24:44;;;;;;;0.20;0.20;;;21.30;99.90;;;;;;5045477;28;20060;-75
2022/12/28 13:27:19;;;;;;;1.13;1.08;;;21.30;99.90;;;;;;5033474;28;20467;-75
2022/12/28 13:29:53;;;;;;;0.20;0.20;;;21.40;99.90;;;;;;5032141;28;20513;-77
2022/12/28 13:32:34;;;;;;;0.20;0.20;;;21.50;99.90;;;;;;5033453;28;20040;-76
2022/12/28 13:35:00;;;;;;;1.23;1.23;;;21.50;99.90;;;;;;5032408;28;20086;-75